createdAt,value
2024-02-18T00:01:26.311Z,11.37
2024-02-18T00:03:54.735Z,11.33
2024-02-18T00:06:23.136Z,11.00
2024-02-18T00:08:51.530Z,11.10
2024-02-18T00:11:19.846Z,11.03
2024-02-18T00:13:48.125Z,11.80
2024-02-18T00:16:16.417Z,11.07
2024-02-18T00:18:46.199Z,11.37
2024-02-18T00:21:18.533Z,11.20
2024-02-18T00:23:46.829Z,11.50
2024-02-18T00:26:15.201Z,10.40
2024-02-18T00:28:43.819Z,10.60
2024-02-18T00:31:12.479Z,11.00
2024-02-18T00:33:40.797Z,9.93
2024-02-18T00:36:10.669Z,10.63
2024-02-18T00:38:38.910Z,11.80
2024-02-18T00:41:07.986Z,9.83
2024-02-18T00:43:36.284Z,10.00
2024-02-18T00:46:12.947Z,10.03
2024-02-18T00:48:47.984Z,10.43
2024-02-18T00:51:17.715Z,10.90
2024-02-18T00:53:45.989Z,9.67
2024-02-18T00:56:14.200Z,10.57
2024-02-18T00:58:42.386Z,10.60
2024-02-18T01:01:10.679Z,10.47
2024-02-18T01:03:39.846Z,10.00
2024-02-18T01:06:08.115Z,9.80
2024-02-18T01:08:37.699Z,9.43
2024-02-18T01:11:06.271Z,9.33
2024-02-18T01:13:34.583Z,9.60
2024-02-18T01:16:03.538Z,9.07
2024-02-18T01:18:32.083Z,8.43
2024-02-18T01:21:00.401Z,8.40
2024-02-18T01:23:30.786Z,8.70
2024-02-18T01:26:02.552Z,7.97
2024-02-18T01:28:32.977Z,8.03
2024-02-18T01:31:03.740Z,7.50
2024-02-18T01:33:34.507Z,7.93
2024-02-18T01:36:05.756Z,7.87
2024-02-18T01:38:36.204Z,7.40
2024-02-18T01:41:08.347Z,7.43
2024-02-18T01:43:41.081Z,7.47
2024-02-18T01:46:14.258Z,6.87
2024-02-18T01:48:44.838Z,6.33
2024-02-18T01:51:15.453Z,6.43
2024-02-18T01:53:44.205Z,6.93
2024-02-18T01:56:14.250Z,7.03
2024-02-18T01:58:42.431Z,6.43
2024-02-18T02:01:10.673Z,6.87
2024-02-18T02:03:40.680Z,6.70
2024-02-18T02:06:09.352Z,6.43
2024-02-18T02:08:37.772Z,6.40
2024-02-18T02:11:11.970Z,7.13
2024-02-18T02:13:41.669Z,6.03
2024-02-18T02:16:10.418Z,7.03
2024-02-18T02:18:38.915Z,6.23
2024-02-18T02:21:07.189Z,6.50
2024-02-18T02:23:36.086Z,6.17
2024-02-18T02:26:04.396Z,6.40
2024-02-18T02:28:35.770Z,6.00
2024-02-18T02:31:05.615Z,5.90
2024-02-18T02:33:33.872Z,5.77
2024-02-18T02:36:02.107Z,5.97
2024-02-18T02:38:35.662Z,5.67
2024-02-18T02:41:04.756Z,6.43
2024-02-18T02:43:33.971Z,5.87
2024-02-18T02:46:02.280Z,5.87
2024-02-18T02:48:31.997Z,5.67
2024-02-18T02:51:00.579Z,6.00
2024-02-18T02:53:29.271Z,6.30
2024-02-18T02:55:57.498Z,5.93
2024-02-18T02:58:25.774Z,5.60
2024-02-18T03:00:54.254Z,5.40
2024-02-18T03:03:22.589Z,5.47
2024-02-18T03:05:52.279Z,5.87
2024-02-18T03:08:20.534Z,5.60
2024-02-18T03:10:48.754Z,6.20
2024-02-18T03:13:17.125Z,5.57
2024-02-18T03:15:45.488Z,5.97
2024-02-18T03:18:13.808Z,5.83
2024-02-18T03:20:42.073Z,6.27
2024-02-18T03:23:11.668Z,6.40
2024-02-18T03:25:40.123Z,5.73
2024-02-18T03:28:11.320Z,5.97
2024-02-18T03:30:40.169Z,6.10
2024-02-18T03:33:08.427Z,5.30
2024-02-18T03:35:36.636Z,5.77
2024-02-18T03:38:05.074Z,5.87
2024-02-18T03:40:34.629Z,5.93
2024-02-18T03:43:02.837Z,5.70
2024-02-18T03:45:31.176Z,5.33
2024-02-18T03:47:59.452Z,6.10
2024-02-18T03:50:28.134Z,6.03
2024-02-18T03:52:56.350Z,5.50
2024-02-18T03:55:24.717Z,5.70
2024-02-18T03:57:54.298Z,6.63
2024-02-18T04:00:22.748Z,4.87
2024-02-18T04:02:50.945Z,5.30
2024-02-18T04:05:19.291Z,5.63
2024-02-18T04:07:47.511Z,5.40
2024-02-18T04:10:18.039Z,6.40
2024-02-18T04:12:48.085Z,5.87
2024-02-18T04:15:18.370Z,6.00
2024-02-18T04:17:46.610Z,6.40
2024-02-18T04:20:14.832Z,5.83
2024-02-18T04:22:44.033Z,6.97
2024-02-18T04:25:12.874Z,6.87
2024-02-18T04:27:41.106Z,6.40
2024-02-18T04:30:09.885Z,6.50
2024-02-18T04:32:39.499Z,6.90
2024-02-18T04:35:08.229Z,6.33
2024-02-18T04:37:38.628Z,7.00
2024-02-18T04:40:07.638Z,7.10
2024-02-18T04:42:35.909Z,7.10
2024-02-18T04:45:04.130Z,6.87
2024-02-18T04:47:32.974Z,7.20
2024-02-18T04:50:05.245Z,6.27
2024-02-18T04:52:35.928Z,6.50
2024-02-18T04:55:04.413Z,6.80
2024-02-18T04:57:32.651Z,6.40
2024-02-18T05:00:00.848Z,6.30
2024-02-18T05:02:29.039Z,6.07
2024-02-18T05:04:57.491Z,6.07
2024-02-18T05:07:27.076Z,6.07
2024-02-18T05:09:55.323Z,5.27
2024-02-18T05:12:23.608Z,5.93
2024-02-18T05:14:51.818Z,5.63
2024-02-18T05:17:20.081Z,5.00
2024-02-18T05:19:48.717Z,5.40
2024-02-18T05:22:16.957Z,5.67
2024-02-18T05:24:47.017Z,4.70
2024-02-18T05:27:15.225Z,5.10
2024-02-18T05:29:43.518Z,4.60
2024-02-18T05:32:11.766Z,4.97
2024-02-18T05:34:40.325Z,5.10
2024-02-18T05:37:08.716Z,4.80
2024-02-18T05:39:36.979Z,4.53
2024-02-18T05:42:07.355Z,4.57
2024-02-18T05:44:35.670Z,4.33
2024-02-18T05:47:03.904Z,4.17
2024-02-18T05:49:32.145Z,4.20
2024-02-18T05:52:00.483Z,4.60
2024-02-18T05:54:28.781Z,3.87
2024-02-18T05:56:56.999Z,4.00
2024-02-18T05:59:26.634Z,4.63
2024-02-18T06:01:54.879Z,3.90
2024-02-18T06:04:23.249Z,3.63
2024-02-18T06:06:51.897Z,3.60
2024-02-18T06:09:20.774Z,4.00
2024-02-18T06:11:49.703Z,3.90
2024-02-18T06:14:25.240Z,3.83
2024-02-18T06:16:56.651Z,4.23
2024-02-18T06:19:25.081Z,4.07
2024-02-18T06:21:53.426Z,3.63
2024-02-18T06:24:28.605Z,3.30
2024-02-18T06:26:59.094Z,3.57
2024-02-18T06:29:28.365Z,3.13
2024-02-18T06:31:59.024Z,3.50
2024-02-18T06:34:28.456Z,3.30
2024-02-18T06:36:58.987Z,3.57
2024-02-18T06:39:29.852Z,3.30
2024-02-18T06:41:58.048Z,3.53
2024-02-18T06:44:26.435Z,2.97
2024-02-18T06:46:54.681Z,4.10
2024-02-18T06:49:24.356Z,3.30
2024-02-18T06:51:52.718Z,2.60
2024-02-18T06:54:20.915Z,2.93
2024-02-18T06:56:49.177Z,3.53
2024-02-18T06:59:17.552Z,2.77
2024-02-18T07:01:45.871Z,3.13
2024-02-18T07:04:14.407Z,2.97
2024-02-18T07:06:44.385Z,3.80
2024-02-18T07:09:12.845Z,3.10
2024-02-18T07:11:41.064Z,3.20
2024-02-18T07:14:09.240Z,2.90
2024-02-18T07:16:37.450Z,3.00
2024-02-18T07:19:09.011Z,3.10
2024-02-18T07:21:37.443Z,3.07
2024-02-18T07:24:08.000Z,3.07
2024-02-18T07:26:38.701Z,2.57
2024-02-18T07:29:06.970Z,2.80
2024-02-18T07:31:37.997Z,2.43
2024-02-18T07:34:06.785Z,2.70
2024-02-18T07:36:35.552Z,2.83
2024-02-18T07:39:04.602Z,3.17
2024-02-18T07:41:34.142Z,2.90
2024-02-18T07:44:02.388Z,3.10
2024-02-18T07:46:30.608Z,3.40
2024-02-18T07:48:59.064Z,2.80
2024-02-18T07:51:29.067Z,3.13
2024-02-18T07:53:57.634Z,3.23
2024-02-18T07:56:25.931Z,2.93
2024-02-18T07:58:55.472Z,3.00
2024-02-18T08:01:24.295Z,2.80
2024-02-18T08:03:53.422Z,3.30
2024-02-18T08:06:21.710Z,2.97
2024-02-18T08:08:49.930Z,3.10
2024-02-18T08:11:18.121Z,3.10
2024-02-18T08:13:46.347Z,3.40
2024-02-18T08:16:16.546Z,3.00
2024-02-18T08:18:44.956Z,3.53
2024-02-18T08:21:13.295Z,3.40
2024-02-18T08:23:41.681Z,3.00
2024-02-18T08:26:09.909Z,2.90
2024-02-18T08:28:38.524Z,3.00
2024-02-18T08:31:07.231Z,3.00
2024-02-18T08:33:36.992Z,2.80
2024-02-18T08:36:07.224Z,2.53
2024-02-18T08:38:35.410Z,2.40
2024-02-18T08:41:04.882Z,2.90
2024-02-18T08:43:33.766Z,2.90
2024-02-18T08:46:02.488Z,2.67
2024-02-18T08:48:30.727Z,2.70
2024-02-18T08:51:00.354Z,2.50
2024-02-18T08:53:28.909Z,2.40
2024-02-18T08:55:57.128Z,2.80
2024-02-18T08:58:25.313Z,2.50
2024-02-18T09:00:54.444Z,2.50
2024-02-18T09:03:23.089Z,2.83
2024-02-18T09:05:51.487Z,2.30
2024-02-18T09:08:22.595Z,2.40
2024-02-18T09:10:50.830Z,3.13
2024-02-18T09:13:19.065Z,2.60
2024-02-18T09:15:47.275Z,2.13
2024-02-18T09:18:15.718Z,2.13
2024-02-18T09:20:44.123Z,2.60
2024-02-18T09:23:12.351Z,2.80
2024-02-18T09:25:41.991Z,2.13
2024-02-18T09:28:10.847Z,2.37
2024-02-18T09:30:39.184Z,2.67
2024-02-18T09:33:08.377Z,2.73
2024-02-18T09:35:36.946Z,2.20
2024-02-18T09:38:09.362Z,2.37
2024-02-18T09:40:37.881Z,2.43
2024-02-18T09:43:07.617Z,2.10
2024-02-18T09:45:36.297Z,2.10
2024-02-18T09:48:05.170Z,2.10
2024-02-18T09:50:34.229Z,2.27
2024-02-18T09:53:04.410Z,2.27
2024-02-18T09:55:32.601Z,1.93
2024-02-18T09:58:01.095Z,2.50
2024-02-18T10:00:31.022Z,2.47
2024-02-18T10:02:59.214Z,1.90
2024-02-18T10:05:27.503Z,1.80
2024-02-18T10:08:03.066Z,2.20
2024-02-18T10:10:33.500Z,1.83
2024-02-18T10:13:01.753Z,1.80
2024-02-18T10:15:31.816Z,2.10
2024-02-18T10:18:00.348Z,2.00
2024-02-18T10:20:29.729Z,2.17
2024-02-18T10:22:57.939Z,1.97
2024-02-18T10:25:26.124Z,2.00
2024-02-18T10:27:59.007Z,2.07
2024-02-18T10:30:27.385Z,1.80
2024-02-18T10:32:56.982Z,2.70
2024-02-18T10:35:25.973Z,1.70
2024-02-18T10:37:56.283Z,2.00
2024-02-18T10:40:28.240Z,1.73
2024-02-18T10:43:01.379Z,2.13
2024-02-18T10:45:30.043Z,2.17
2024-02-18T10:48:01.242Z,1.80
2024-02-18T10:50:29.802Z,1.90
2024-02-18T10:53:00.581Z,2.27
2024-02-18T10:55:32.345Z,1.97
2024-02-18T10:58:03.083Z,2.17
2024-02-18T11:00:31.923Z,1.60
2024-02-18T11:03:03.490Z,1.83
2024-02-18T11:05:35.922Z,1.90
2024-02-18T11:08:04.798Z,1.97
2024-02-18T11:10:33.124Z,1.80
2024-02-18T11:13:01.662Z,1.80
2024-02-18T11:15:29.924Z,1.50
2024-02-18T11:17:58.744Z,1.93
2024-02-18T11:20:28.838Z,1.97
2024-02-18T11:22:58.133Z,2.03
2024-02-18T11:25:26.394Z,1.93
2024-02-18T11:27:54.622Z,2.40
2024-02-18T11:30:23.275Z,2.03
2024-02-18T11:32:52.180Z,2.23
2024-02-18T11:35:20.605Z,2.03
2024-02-18T11:37:51.342Z,2.07
2024-02-18T11:40:20.765Z,2.47
2024-02-18T11:42:49.562Z,2.20
2024-02-18T11:45:18.635Z,2.13
2024-02-18T11:47:47.425Z,2.10
2024-02-18T11:50:15.775Z,2.00
2024-02-18T11:52:44.382Z,2.63
2024-02-18T11:55:18.596Z,2.23
2024-02-18T11:57:47.454Z,2.67
2024-02-18T12:00:17.781Z,2.57
2024-02-18T12:02:51.237Z,2.50
2024-02-18T12:05:21.415Z,2.47
2024-02-18T12:07:50.303Z,2.60
2024-02-18T12:10:20.242Z,2.60
2024-02-18T12:12:48.619Z,2.97
2024-02-18T12:15:22.223Z,2.27
2024-02-18T12:17:53.675Z,2.97
2024-02-18T12:20:23.933Z,2.80
2024-02-18T12:22:52.361Z,3.00
2024-02-18T12:25:22.153Z,6.87
2024-02-18T12:27:51.515Z,2.63
2024-02-18T12:30:23.041Z,2.40
2024-02-18T12:32:51.899Z,3.00
2024-02-18T12:35:21.612Z,2.20
2024-02-18T12:37:50.099Z,2.37
2024-02-18T12:40:18.575Z,2.50
2024-02-18T12:43:04.534Z,2.63
2024-02-18T12:45:43.326Z,2.57
2024-02-18T12:48:16.681Z,2.03
2024-02-18T12:50:45.741Z,2.17
2024-02-18T12:53:14.263Z,2.00
2024-02-18T12:55:43.149Z,1.90
2024-02-18T12:58:12.809Z,2.30
2024-02-18T13:00:41.509Z,2.20
2024-02-18T13:03:19.023Z,2.07
2024-02-18T13:05:49.218Z,2.27
2024-02-18T13:08:17.626Z,2.00
2024-02-18T13:10:45.816Z,2.00
2024-02-18T13:13:15.353Z,2.10
2024-02-18T13:15:43.639Z,1.90
2024-02-18T13:18:11.982Z,2.00
2024-02-18T13:20:40.217Z,1.90
2024-02-18T13:23:08.415Z,2.20
2024-02-18T13:25:36.572Z,1.90
2024-02-18T13:28:04.943Z,2.27
2024-02-18T13:30:34.567Z,1.80
2024-02-18T13:33:02.868Z,2.30
2024-02-18T13:35:31.226Z,1.97
2024-02-18T13:37:59.470Z,2.43
2024-02-18T13:40:27.986Z,1.87
2024-02-18T13:42:56.282Z,1.77
2024-02-18T13:45:25.196Z,2.53
2024-02-18T13:47:58.694Z,2.30
2024-02-18T13:50:28.126Z,2.00
2024-02-18T13:52:56.555Z,1.77
2024-02-18T13:55:24.778Z,2.07
2024-02-18T13:57:53.452Z,1.97
2024-02-18T14:00:21.865Z,2.07
2024-02-18T14:05:21.316Z,2.10
2024-02-18T14:07:49.665Z,2.37
2024-02-18T14:10:21.160Z,2.10
2024-02-18T14:12:50.112Z,2.00
2024-02-18T14:15:18.630Z,2.70
2024-02-18T14:17:48.040Z,2.43
2024-02-18T14:20:16.369Z,2.37
2024-02-18T14:22:46.061Z,2.07
2024-02-18T14:25:18.135Z,2.57
2024-02-18T14:27:46.434Z,2.10
2024-02-18T14:30:15.224Z,2.20
2024-02-18T14:32:43.507Z,2.50
2024-02-18T14:35:11.945Z,2.40
2024-02-18T14:37:40.287Z,2.70
2024-02-18T14:40:14.632Z,2.23
2024-02-18T14:42:43.298Z,2.73
2024-02-18T14:45:13.563Z,3.00
2024-02-18T14:47:42.057Z,3.00
2024-02-18T14:50:12.332Z,2.30
2024-02-18T14:52:40.724Z,2.80
2024-02-18T14:55:10.790Z,2.47
2024-02-18T14:57:39.808Z,2.93
2024-02-18T15:00:10.306Z,1.97
2024-02-18T15:02:41.876Z,3.10
2024-02-18T15:05:12.088Z,2.80
2024-02-18T15:07:40.503Z,2.67
2024-02-18T15:10:10.969Z,2.90
2024-02-18T15:12:39.398Z,2.50
2024-02-18T15:15:08.088Z,2.57
2024-02-18T15:17:36.329Z,3.37
2024-02-18T15:20:07.262Z,2.80
2024-02-18T15:22:37.867Z,2.80
2024-02-18T15:25:07.012Z,3.30
2024-02-18T15:27:36.795Z,3.13
2024-02-18T15:30:05.277Z,3.00
2024-02-18T15:32:33.479Z,2.83
2024-02-18T15:35:01.865Z,3.33
2024-02-18T15:37:30.226Z,2.70
2024-02-18T15:39:58.476Z,2.70
2024-02-18T15:42:26.757Z,2.73
2024-02-18T15:44:56.302Z,2.47
2024-02-18T15:47:24.664Z,2.77
2024-02-18T15:49:53.747Z,2.67
2024-02-18T15:52:22.062Z,2.87
2024-02-18T15:54:49.311Z,2.47
2024-02-18T15:57:18.421Z,2.57
2024-02-18T15:59:47.212Z,2.57
2024-02-18T16:02:16.774Z,2.27
2024-02-18T16:04:45.949Z,2.27
2024-02-18T16:07:15.003Z,2.10
2024-02-18T16:09:49.164Z,2.30
2024-02-18T16:12:18.015Z,3.03
2024-02-18T16:14:46.213Z,2.67
2024-02-18T16:17:14.420Z,2.27
2024-02-18T16:19:44.657Z,2.30
2024-02-18T16:22:15.428Z,2.63
2024-02-18T16:24:45.583Z,2.87
2024-02-18T16:27:13.831Z,2.80
2024-02-18T16:29:42.081Z,3.40
2024-02-18T16:32:12.436Z,2.57
2024-02-18T16:34:40.841Z,2.50
2024-02-18T16:37:12.873Z,2.33
2024-02-18T16:39:45.516Z,1.77
2024-02-18T16:42:13.987Z,1.53
2024-02-18T16:44:50.965Z,1.73
2024-02-18T16:47:19.981Z,1.60
2024-02-18T16:49:48.306Z,1.33
2024-02-18T16:52:17.977Z,1.40
2024-02-18T16:54:46.376Z,1.20
2024-02-18T16:57:14.588Z,1.33
2024-02-18T16:59:44.520Z,1.50
2024-02-18T17:02:12.818Z,1.70
2024-02-18T17:04:41.603Z,1.33
2024-02-18T17:07:09.905Z,1.40
2024-02-18T17:09:39.526Z,1.37
2024-02-18T17:12:09.089Z,1.33
2024-02-18T17:14:38.356Z,1.20
2024-02-18T17:17:06.736Z,1.20
2024-02-18T17:19:35.154Z,1.20
2024-02-18T17:22:03.485Z,1.20
2024-02-18T17:24:32.702Z,1.20
2024-02-18T17:27:03.408Z,2.30
2024-02-18T17:29:32.966Z,1.50
2024-02-18T17:32:02.115Z,1.57
2024-02-18T17:34:30.714Z,1.60
2024-02-18T17:36:59.009Z,1.90
2024-02-18T17:39:27.747Z,1.63
2024-02-18T17:41:55.961Z,2.10
2024-02-18T17:44:26.870Z,1.90
2024-02-18T17:46:57.091Z,1.90
2024-02-18T17:49:25.401Z,1.87
2024-02-18T17:51:53.687Z,2.10
2024-02-18T17:54:21.946Z,2.00
2024-02-18T17:56:53.004Z,2.10
2024-02-18T17:59:21.353Z,2.33
2024-02-18T18:01:51.009Z,2.30
2024-02-18T18:04:19.386Z,2.50
2024-02-18T18:06:47.765Z,2.10
2024-02-18T18:09:15.995Z,2.20
2024-02-18T18:11:44.169Z,1.80
2024-02-18T18:14:12.370Z,1.57
2024-02-18T18:16:40.583Z,1.33
2024-02-18T18:19:10.345Z,1.50
2024-02-18T18:21:38.760Z,3.50
2024-02-18T18:24:08.370Z,1.40
2024-02-18T18:26:36.632Z,1.57
2024-02-18T18:29:04.893Z,1.53
2024-02-18T18:31:33.060Z,1.70
2024-02-18T18:34:01.405Z,1.87
2024-02-18T18:36:31.920Z,1.70
2024-02-18T18:39:00.605Z,1.83
2024-02-18T18:41:28.781Z,1.80
2024-02-18T18:43:56.956Z,1.50
2024-02-18T18:46:26.398Z,1.50
2024-02-18T18:48:54.801Z,1.33
2024-02-18T18:51:23.085Z,1.60
2024-02-18T18:53:52.600Z,1.60
2024-02-18T18:56:21.212Z,1.30
2024-02-18T18:58:50.094Z,1.47
2024-02-18T19:01:18.623Z,0.90
2024-02-18T19:03:47.279Z,1.03
2024-02-18T19:06:18.812Z,1.23
2024-02-18T19:08:47.052Z,1.17
2024-02-18T19:11:16.651Z,1.00
2024-02-18T19:13:47.656Z,0.90
2024-02-18T19:16:19.089Z,1.20
2024-02-18T19:18:48.145Z,1.13
2024-02-18T19:21:16.615Z,1.00
2024-02-18T19:23:44.838Z,1.20
2024-02-18T19:26:14.048Z,1.17
2024-02-18T19:28:43.637Z,1.00
2024-02-18T19:31:16.862Z,1.50
2024-02-18T19:33:46.825Z,1.40
2024-02-18T19:36:16.353Z,1.37
2024-02-18T19:38:45.223Z,2.77
2024-02-18T19:41:13.640Z,1.30
2024-02-18T19:43:42.116Z,2.03
2024-02-18T19:46:12.096Z,1.20
2024-02-18T19:48:42.025Z,1.20
2024-02-18T19:51:11.338Z,1.97
2024-02-18T19:53:39.550Z,1.33
2024-02-18T19:56:08.364Z,1.87
2024-02-18T19:58:38.997Z,2.10
2024-02-18T20:01:07.614Z,1.93
2024-02-18T20:03:37.268Z,1.70
2024-02-18T20:06:06.172Z,2.00
2024-02-18T20:08:38.216Z,2.00
2024-02-18T20:11:07.993Z,2.10
2024-02-18T20:13:36.420Z,2.07
2024-02-18T20:16:04.993Z,2.10
2024-02-18T20:18:33.615Z,2.13
2024-02-18T20:21:04.697Z,1.70
2024-02-18T20:23:33.066Z,1.73
2024-02-18T20:26:01.500Z,1.97
2024-02-18T20:28:29.754Z,1.70
2024-02-18T20:30:57.993Z,1.53
2024-02-18T20:33:26.370Z,1.40
2024-02-18T20:35:56.325Z,1.60
2024-02-18T20:38:26.236Z,1.30
2024-02-18T20:40:54.605Z,1.53
2024-02-18T20:43:22.987Z,1.40
2024-02-18T20:45:51.272Z,1.20
2024-02-18T20:48:19.628Z,1.40
2024-02-18T20:50:48.377Z,1.30
2024-02-18T20:53:16.634Z,1.70
2024-02-18T20:55:46.216Z,1.47
2024-02-18T20:58:14.556Z,1.63
2024-02-18T21:00:43.195Z,1.90
2024-02-18T21:03:12.101Z,1.23
2024-02-18T21:05:40.458Z,1.47
2024-02-18T21:08:08.825Z,1.60
2024-02-18T21:10:37.080Z,1.93
2024-02-18T21:13:06.722Z,1.47
2024-02-18T21:15:34.994Z,1.70
2024-02-18T21:18:03.409Z,1.80
2024-02-18T21:20:31.662Z,2.57
2024-02-18T21:22:59.860Z,2.70
2024-02-18T21:25:29.045Z,2.93
2024-02-18T21:27:57.681Z,2.07
2024-02-18T21:30:27.521Z,2.40
2024-02-18T21:32:55.830Z,2.53
2024-02-18T21:35:24.716Z,2.93
2024-02-18T21:37:52.919Z,3.40
2024-02-18T21:40:21.142Z,2.80
2024-02-18T21:42:49.471Z,2.83
2024-02-18T21:45:17.791Z,3.30
2024-02-18T21:47:47.910Z,2.90
2024-02-18T21:50:16.665Z,2.43
2024-02-18T21:52:44.946Z,3.03
2024-02-18T21:55:14.298Z,2.83
2024-02-18T21:57:42.594Z,3.13
2024-02-18T22:00:11.621Z,2.63
2024-02-18T22:02:39.804Z,2.97
2024-02-18T22:05:09.941Z,2.77
2024-02-18T22:07:38.343Z,2.80
2024-02-18T22:10:08.151Z,3.07
2024-02-18T22:12:36.571Z,2.57
2024-02-18T22:15:05.210Z,2.70
2024-02-18T22:17:33.563Z,2.67
2024-02-18T22:20:01.957Z,2.60
2024-02-18T22:22:31.631Z,3.00
2024-02-18T22:24:59.886Z,2.83
2024-02-18T22:27:28.072Z,3.33
2024-02-18T22:29:56.293Z,3.03
2024-02-18T22:32:24.512Z,3.40
2024-02-18T22:34:52.853Z,3.37
2024-02-18T22:37:21.574Z,3.23
2024-02-18T22:39:51.145Z,3.23
2024-02-18T22:42:19.359Z,3.20
2024-02-18T22:44:47.535Z,4.00
2024-02-18T22:47:15.736Z,4.00
2024-02-18T22:49:43.962Z,3.93
2024-02-18T22:52:12.215Z,4.40
2024-02-18T22:54:42.712Z,4.50
2024-02-18T22:57:12.355Z,4.90
2024-02-18T22:59:40.574Z,3.90
2024-02-18T23:02:08.877Z,4.03
2024-02-18T23:04:37.099Z,5.33
2024-02-18T23:07:07.471Z,4.80
2024-02-18T23:09:35.988Z,4.60
2024-02-18T23:12:04.352Z,4.20
2024-02-18T23:14:33.905Z,4.67
2024-02-18T23:17:02.089Z,5.40
2024-02-18T23:19:30.384Z,4.37
2024-02-18T23:21:58.701Z,4.83
2024-02-18T23:24:26.892Z,4.67
2024-02-18T23:26:55.113Z,5.23
2024-02-18T23:29:23.322Z,5.10
2024-02-18T23:31:52.842Z,5.57
2024-02-18T23:34:21.125Z,5.10
2024-02-18T23:36:49.425Z,5.67
2024-02-18T23:39:17.622Z,5.07
2024-02-18T23:41:46.245Z,5.47
2024-02-18T23:44:14.442Z,5.50
2024-02-18T23:46:42.761Z,5.47
2024-02-18T23:49:12.499Z,5.07
2024-02-18T23:51:40.795Z,5.70
2024-02-18T23:54:09.299Z,5.80
2024-02-18T23:56:37.554Z,5.10
2024-02-18T23:59:05.744Z,5.80
